sensor_id;sensor_type;location;lat;lon;timestamp;pressure;altitude;pressure_sealevel;temperature;humidity
63399;BME280;49533;-34.520;150.798;2023-06-22T00:01:21;100889.91;;;14.51;49.61
63399;BME280;49533;-34.520;150.798;2023-06-22T00:03:49;100890.44;;;14.53;49.91
63399;BME280;49533;-34.520;150.798;2023-06-22T00:06:16;100840.31;;;14.14;50.31
63399;BME280;49533;-34.520;150.798;2023-06-22T00:08:44;100844.94;;;14.22;49.96
63399;BME280;49533;-34.520;150.798;2023-06-22T00:11:11;100863.44;;;14.25;49.66
63399;BME280;49533;-34.520;150.798;2023-06-22T00:13:39;100772.50;;;13.90;50.10
63399;BME280;49533;-34.520;150.798;2023-06-22T00:16:06;100859.22;;;14.45;49.68
63399;BME280;49533;-34.520;150.798;2023-06-22T00:18:33;100890.69;;;14.77;49.51
63399;BME280;49533;-34.520;150.798;2023-06-22T00:21:00;100761.09;;;13.62;49.45
63399;BME280;49533;-34.520;150.798;2023-06-22T00:23:28;100876.25;;;14.68;49.53
63399;BME280;49533;-34.520;150.798;2023-06-22T00:26:00;100794.47;;;14.20;49.75
63399;BME280;49533;-34.520;150.798;2023-06-22T00:28:27;100837.66;;;14.52;50.29
63399;BME280;49533;-34.520;150.798;2023-06-22T00:30:55;100842.81;;;14.54;49.73
63399;BME280;49533;-34.520;150.798;2023-06-22T00:33:22;100883.41;;;14.90;49.78
63399;BME280;49533;-34.520;150.798;2023-06-22T00:35:49;100774.38;;;14.24;50.41
63399;BME280;49533;-34.520;150.798;2023-06-22T00:38:19;100861.41;;;14.78;49.90
63399;BME280;49533;-34.520;150.798;2023-06-22T00:40:47;100870.69;;;14.94;50.36
63399;BME280;49533;-34.520;150.798;2023-06-22T00:43:14;100841.13;;;14.79;50.44
63399;BME280;49533;-34.520;150.798;2023-06-22T00:45:41;100868.06;;;14.98;50.54
63399;BME280;49533;-34.520;150.798;2023-06-22T00:48:08;100834.69;;;14.84;50.86
63399;BME280;49533;-34.520;150.798;2023-06-22T00:50:36;100841.53;;;14.98;50.51
63399;BME280;49533;-34.520;150.798;2023-06-22T00:53:06;100784.38;;;14.67;50.29
63399;BME280;49533;-34.520;150.798;2023-06-22T00:55:38;100805.19;;;14.89;50.82
63399;BME280;49533;-34.520;150.798;2023-06-22T00:58:07;100839.06;;;15.06;51.20
63399;BME280;49533;-34.520;150.798;2023-06-22T01:00:37;100823.13;;;15.08;51.47
63399;BME280;49533;-34.520;150.798;2023-06-22T01:03:05;100797.28;;;14.96;51.46
63399;BME280;49533;-34.520;150.798;2023-06-22T01:05:36;100813.94;;;15.12;51.38
63399;BME280;49533;-34.520;150.798;2023-06-22T01:10:55;100773.66;;;14.92;51.52
63399;BME280;49533;-34.520;150.798;2023-06-22T01:16:23;100664.72;;;14.26;50.96
63399;BME280;49533;-34.520;150.798;2023-06-22T01:18:54;100795.88;;;15.20;50.96
63399;BME280;49533;-34.520;150.798;2023-06-22T01:21:25;100650.56;;;14.32;51.02
63399;BME280;49533;-34.520;150.798;2023-06-22T01:24:11;100710.72;;;14.62;51.47
63399;BME280;49533;-34.520;150.798;2023-06-22T01:27:04;100736.84;;;15.10;51.42
63399;BME280;49533;-34.520;150.798;2023-06-22T01:29:37;100756.56;;;15.25;51.37
63399;BME280;49533;-34.520;150.798;2023-06-22T01:32:06;100600.94;;;14.22;50.99
63399;BME280;49533;-34.520;150.798;2023-06-22T01:34:34;100712.28;;;15.02;51.07
63399;BME280;49533;-34.520;150.798;2023-06-22T01:37:02;100734.78;;;15.28;51.02
63399;BME280;49533;-34.520;150.798;2023-06-22T01:39:30;100732.50;;;15.30;51.32
63399;BME280;49533;-34.520;150.798;2023-06-22T01:41:59;100745.72;;;15.28;51.63
63399;BME280;49533;-34.520;150.798;2023-06-22T01:44:27;100666.00;;;14.88;51.68
63399;BME280;49533;-34.520;150.798;2023-06-22T01:46:55;100683.91;;;15.06;51.63
63399;BME280;49533;-34.520;150.798;2023-06-22T01:49:22;100689.91;;;15.20;52.57
63399;BME280;49533;-34.520;150.798;2023-06-22T01:51:50;100668.03;;;15.20;52.18
63399;BME280;49533;-34.520;150.798;2023-06-22T01:54:17;100721.44;;;15.48;52.75
63399;BME280;49533;-34.520;150.798;2023-06-22T01:56:44;100595.91;;;14.83;52.28
63399;BME280;49533;-34.520;150.798;2023-06-22T01:59:21;100610.88;;;14.98;52.36
63399;BME280;49533;-34.520;150.798;2023-06-22T02:02:04;100695.44;;;15.54;52.59
63399;BME280;49533;-34.520;150.798;2023-06-22T02:04:41;100682.94;;;15.44;52.90
63399;BME280;49533;-34.520;150.798;2023-06-22T02:07:14;100688.56;;;15.48;52.78
63399;BME280;49533;-34.520;150.798;2023-06-22T02:09:46;100681.03;;;15.44;52.55
63399;BME280;49533;-34.520;150.798;2023-06-22T02:12:23;100645.13;;;15.25;52.52
63399;BME280;49533;-34.520;150.798;2023-06-22T02:14:52;100685.94;;;15.51;52.20
63399;BME280;49533;-34.520;150.798;2023-06-22T02:17:19;100688.75;;;15.63;52.19
63399;BME280;49533;-34.520;150.798;2023-06-22T02:19:46;100689.53;;;15.64;52.19
63399;BME280;49533;-34.520;150.798;2023-06-22T02:22:13;100686.47;;;15.65;51.81
63399;BME280;49533;-34.520;150.798;2023-06-22T02:24:40;100689.69;;;15.68;51.92
63399;BME280;49533;-34.520;150.798;2023-06-22T02:27:08;100684.19;;;15.68;51.43
63399;BME280;49533;-34.520;150.798;2023-06-22T02:29:37;100671.84;;;15.61;51.23
63399;BME280;49533;-34.520;150.798;2023-06-22T02:32:04;100674.03;;;15.68;51.46
63399;BME280;49533;-34.520;150.798;2023-06-22T02:34:32;100672.91;;;15.69;51.13
63399;BME280;49533;-34.520;150.798;2023-06-22T02:37:00;100664.41;;;15.62;50.98
63399;BME280;49533;-34.520;150.798;2023-06-22T02:39:27;100659.69;;;15.71;51.04
63399;BME280;49533;-34.520;150.798;2023-06-22T02:41:55;100662.09;;;15.73;50.93
63399;BME280;49533;-34.520;150.798;2023-06-22T02:44:22;100620.38;;;15.55;51.10
63399;BME280;49533;-34.520;150.798;2023-06-22T02:46:49;100611.81;;;15.56;51.06
63399;BME280;49533;-34.520;150.798;2023-06-22T02:49:16;100629.81;;;15.78;50.98
63399;BME280;49533;-34.520;150.798;2023-06-22T02:51:46;100558.63;;;15.45;51.05
63399;BME280;49533;-34.520;150.798;2023-06-22T02:54:14;100582.53;;;15.69;51.54
63399;BME280;49533;-34.520;150.798;2023-06-22T02:56:41;100589.47;;;15.66;51.32
63399;BME280;49533;-34.520;150.798;2023-06-22T02:59:10;100546.50;;;15.46;51.37
63399;BME280;49533;-34.520;150.798;2023-06-22T03:01:38;100601.50;;;15.86;51.26
63399;BME280;49533;-34.520;150.798;2023-06-22T03:04:07;100520.25;;;15.33;51.67
63399;BME280;49533;-34.520;150.798;2023-06-22T03:06:35;100553.84;;;15.66;51.37
63399;BME280;49533;-34.520;150.798;2023-06-22T03:09:04;100544.19;;;15.69;51.56
63399;BME280;49533;-34.520;150.798;2023-06-22T03:11:32;100547.97;;;15.77;51.22
63399;BME280;49533;-34.520;150.798;2023-06-22T03:14:00;100548.78;;;15.77;51.25
63399;BME280;49533;-34.520;150.798;2023-06-22T03:16:28;100518.72;;;15.69;51.33
63399;BME280;49533;-34.520;150.798;2023-06-22T03:18:55;100501.34;;;15.64;51.54
63399;BME280;49533;-34.520;150.798;2023-06-22T03:21:23;100541.25;;;15.99;51.38
63399;BME280;49533;-34.520;150.798;2023-06-22T03:23:50;100536.22;;;16.01;51.36
63399;BME280;49533;-34.520;150.798;2023-06-22T03:26:18;100526.06;;;16.01;51.40
63399;BME280;49533;-34.520;150.798;2023-06-22T03:28:46;100529.25;;;16.03;51.29
63399;BME280;49533;-34.520;150.798;2023-06-22T03:31:13;100537.94;;;16.05;51.24
63399;BME280;49533;-34.520;150.798;2023-06-22T03:33:40;100483.69;;;15.74;51.42
63399;BME280;49533;-34.520;150.798;2023-06-22T03:36:07;100533.34;;;16.09;51.26
63399;BME280;49533;-34.520;150.798;2023-06-22T03:38:35;100525.59;;;16.12;51.08
63399;BME280;49533;-34.520;150.798;2023-06-22T03:41:02;100464.53;;;15.74;51.15
63399;BME280;49533;-34.520;150.798;2023-06-22T03:43:29;100497.28;;;15.95;51.10
63399;BME280;49533;-34.520;150.798;2023-06-22T03:45:56;100513.38;;;16.09;51.10
63399;BME280;49533;-34.520;150.798;2023-06-22T03:48:23;100532.41;;;16.18;50.93
63399;BME280;49533;-34.520;150.798;2023-06-22T03:50:50;100479.94;;;15.91;50.81
63399;BME280;49533;-34.520;150.798;2023-06-22T03:53:17;100512.56;;;16.21;51.08
63399;BME280;49533;-34.520;150.798;2023-06-22T03:55:51;100481.97;;;15.94;51.14
63399;BME280;49533;-34.520;150.798;2023-06-22T03:58:19;100470.56;;;15.92;50.89
63399;BME280;49533;-34.520;150.798;2023-06-22T04:00:48;100469.19;;;15.98;50.97
63399;BME280;49533;-34.520;150.798;2023-06-22T04:03:15;100509.38;;;16.19;50.74
63399;BME280;49533;-34.520;150.798;2023-06-22T04:05:45;100512.56;;;16.21;51.28
63399;BME280;49533;-34.520;150.798;2023-06-22T04:08:13;100453.69;;;15.90;51.38
63399;BME280;49533;-34.520;150.798;2023-06-22T04:10:40;100495.91;;;16.14;51.44
63399;BME280;49533;-34.520;150.798;2023-06-22T04:13:07;100464.97;;;15.89;51.24
63399;BME280;49533;-34.520;150.798;2023-06-22T04:15:35;100458.47;;;15.93;51.37
63399;BME280;49533;-34.520;150.798;2023-06-22T04:18:02;100508.19;;;16.32;51.43
63399;BME280;49533;-34.520;150.798;2023-06-22T04:20:30;100515.25;;;16.33;51.78
63399;BME280;49533;-34.520;150.798;2023-06-22T04:22:57;100522.38;;;16.34;51.64
63399;BME280;49533;-34.520;150.798;2023-06-22T04:25:24;100518.00;;;16.33;51.67
63399;BME280;49533;-34.520;150.798;2023-06-22T04:27:51;100477.84;;;16.13;51.70
63399;BME280;49533;-34.520;150.798;2023-06-22T04:30:19;100502.63;;;16.28;51.81
63399;BME280;49533;-34.520;150.798;2023-06-22T04:32:46;100516.97;;;16.38;51.96
63399;BME280;49533;-34.520;150.798;2023-06-22T04:35:23;100518.91;;;16.37;51.85
63399;BME280;49533;-34.520;150.798;2023-06-22T04:37:50;100487.22;;;16.12;51.75
63399;BME280;49533;-34.520;150.798;2023-06-22T04:40:23;100495.97;;;16.29;51.77
63399;BME280;49533;-34.520;150.798;2023-06-22T04:42:50;100481.59;;;16.20;51.60
63399;BME280;49533;-34.520;150.798;2023-06-22T04:45:20;100491.66;;;16.28;51.55
63399;BME280;49533;-34.520;150.798;2023-06-22T04:47:47;100509.28;;;16.43;51.41
63399;BME280;49533;-34.520;150.798;2023-06-22T04:50:14;100506.91;;;16.42;50.95
63399;BME280;49533;-34.520;150.798;2023-06-22T04:52:45;100477.34;;;16.23;51.37
63399;BME280;49533;-34.520;150.798;2023-06-22T04:55:12;100478.41;;;16.18;51.47
63399;BME280;49533;-34.520;150.798;2023-06-22T04:57:45;100449.88;;;16.07;51.70
63399;BME280;49533;-34.520;150.798;2023-06-22T05:00:18;100504.28;;;16.45;52.19
63399;BME280;49533;-34.520;150.798;2023-06-22T05:02:46;100494.47;;;16.44;51.95
63399;BME280;49533;-34.520;150.798;2023-06-22T05:05:14;100459.78;;;16.24;51.68
63399;BME280;49533;-34.520;150.798;2023-06-22T05:07:43;100493.75;;;16.47;51.78
63399;BME280;49533;-34.520;150.798;2023-06-22T05:10:11;100493.06;;;16.50;51.74
63399;BME280;49533;-34.520;150.798;2023-06-22T05:12:40;100454.16;;;16.33;51.55
63399;BME280;49533;-34.520;150.798;2023-06-22T05:15:08;100445.03;;;16.28;51.50
63399;BME280;49533;-34.520;150.798;2023-06-22T05:17:37;100455.00;;;16.21;51.38
63399;BME280;49533;-34.520;150.798;2023-06-22T05:20:10;100507.22;;;16.52;51.29
63399;BME280;49533;-34.520;150.798;2023-06-22T05:22:38;100473.88;;;16.38;51.13
63399;BME280;49533;-34.520;150.798;2023-06-22T05:25:07;100360.53;;;15.65;51.29
63399;BME280;49533;-34.520;150.798;2023-06-22T05:27:35;100439.59;;;16.16;51.21
63399;BME280;49533;-34.520;150.798;2023-06-22T05:30:07;100411.66;;;15.98;50.87
63399;BME280;49533;-34.520;150.798;2023-06-22T05:32:35;100475.13;;;16.41;50.73
63399;BME280;49533;-34.520;150.798;2023-06-22T05:35:03;100481.44;;;16.41;50.46
63399;BME280;49533;-34.520;150.798;2023-06-22T05:37:31;100446.66;;;16.17;50.36
63399;BME280;49533;-34.520;150.798;2023-06-22T05:39:58;100480.28;;;16.42;50.37
63399;BME280;49533;-34.520;150.798;2023-06-22T05:42:25;100446.78;;;16.21;50.50
63399;BME280;49533;-34.520;150.798;2023-06-22T05:44:53;100501.41;;;16.54;50.44
63399;BME280;49533;-34.520;150.798;2023-06-22T05:47:20;100513.50;;;16.53;50.37
63399;BME280;49533;-34.520;150.798;2023-06-22T05:49:49;100503.69;;;16.52;50.55
63399;BME280;49533;-34.520;150.798;2023-06-22T05:52:16;100488.06;;;16.40;50.57
63399;BME280;49533;-34.520;150.798;2023-06-22T05:54:43;100508.16;;;16.44;50.43
63399;BME280;49533;-34.520;150.798;2023-06-22T05:57:10;100501.78;;;16.40;50.05
63399;BME280;49533;-34.520;150.798;2023-06-22T05:59:37;100464.72;;;16.18;50.42
63399;BME280;49533;-34.520;150.798;2023-06-22T06:02:05;100505.66;;;16.51;50.34
63399;BME280;49533;-34.520;150.798;2023-06-22T06:04:32;100515.00;;;16.50;50.09
63399;BME280;49533;-34.520;150.798;2023-06-22T06:06:59;100358.38;;;15.47;50.41
63399;BME280;49533;-34.520;150.798;2023-06-22T06:09:27;100514.13;;;16.46;50.21
63399;BME280;49533;-34.520;150.798;2023-06-22T06:11:54;100482.84;;;16.23;50.34
63399;BME280;49533;-34.520;150.798;2023-06-22T06:14:21;100505.19;;;16.49;50.64
63399;BME280;49533;-34.520;150.798;2023-06-22T06:16:49;100460.25;;;16.14;51.38
63399;BME280;49533;-34.520;150.798;2023-06-22T06:19:16;100513.50;;;16.53;51.29
63399;BME280;49533;-34.520;150.798;2023-06-22T06:21:43;100504.25;;;16.58;51.63
63399;BME280;49533;-34.520;150.798;2023-06-22T06:24:11;100507.78;;;16.58;51.68
63399;BME280;49533;-34.520;150.798;2023-06-22T06:26:38;100466.50;;;16.39;51.72
63399;BME280;49533;-34.520;150.798;2023-06-22T06:29:05;100449.69;;;16.28;53.00
63399;BME280;49533;-34.520;150.798;2023-06-22T06:31:32;100488.38;;;16.51;52.26
63399;BME280;49533;-34.520;150.798;2023-06-22T06:34:00;100504.44;;;16.65;52.44
63399;BME280;49533;-34.520;150.798;2023-06-22T06:36:27;100410.72;;;16.06;52.69
63399;BME280;49533;-34.520;150.798;2023-06-22T06:38:54;100451.88;;;16.35;52.75
63399;BME280;49533;-34.520;150.798;2023-06-22T06:41:21;100500.31;;;16.71;52.82
63399;BME280;49533;-34.520;150.798;2023-06-22T06:43:49;100503.94;;;16.75;52.50
63399;BME280;49533;-34.520;150.798;2023-06-22T06:46:16;100473.13;;;16.66;52.56
63399;BME280;49533;-34.520;150.798;2023-06-22T06:48:45;100454.78;;;16.54;52.60
63399;BME280;49533;-34.520;150.798;2023-06-22T06:51:12;100475.06;;;16.78;52.55
63399;BME280;49533;-34.520;150.798;2023-06-22T06:53:39;100427.94;;;16.47;52.46
63399;BME280;49533;-34.520;150.798;2023-06-22T06:56:06;100430.97;;;16.58;52.34
63399;BME280;49533;-34.520;150.798;2023-06-22T06:58:36;100420.97;;;16.50;52.54
63399;BME280;49533;-34.520;150.798;2023-06-22T07:01:03;100416.63;;;16.49;52.22
63399;BME280;49533;-34.520;150.798;2023-06-22T07:03:31;100425.03;;;16.56;52.25
63399;BME280;49533;-34.520;150.798;2023-06-22T07:06:00;100435.41;;;16.63;52.11
63399;BME280;49533;-34.520;150.798;2023-06-22T07:08:27;100471.81;;;16.88;52.01
63399;BME280;49533;-34.520;150.798;2023-06-22T07:10:55;100438.94;;;16.63;51.84
63399;BME280;49533;-34.520;150.798;2023-06-22T07:13:22;100468.69;;;16.89;51.99
63399;BME280;49533;-34.520;150.798;2023-06-22T07:15:49;100480.13;;;16.91;52.08
63399;BME280;49533;-34.520;150.798;2023-06-22T07:18:16;100478.53;;;16.90;52.00
63399;BME280;49533;-34.520;150.798;2023-06-22T07:20:43;100470.75;;;16.92;51.92
63399;BME280;49533;-34.520;150.798;2023-06-22T07:23:11;100468.00;;;16.92;52.02
63399;BME280;49533;-34.520;150.798;2023-06-22T07:25:38;100469.59;;;16.93;52.03
63399;BME280;49533;-34.520;150.798;2023-06-22T07:28:07;100451.88;;;16.91;51.82
63399;BME280;49533;-34.520;150.798;2023-06-22T07:30:35;100441.81;;;16.95;51.90
63399;BME280;49533;-34.520;150.798;2023-06-22T07:33:02;100444.19;;;16.97;51.69
63399;BME280;49533;-34.520;150.798;2023-06-22T07:35:31;100394.03;;;16.68;51.41
63399;BME280;49533;-34.520;150.798;2023-06-22T07:37:58;100448.97;;;17.00;51.74
63399;BME280;49533;-34.520;150.798;2023-06-22T07:40:25;100447.38;;;16.99;51.61
63399;BME280;49533;-34.520;150.798;2023-06-22T07:42:53;100454.91;;;17.02;51.66
63399;BME280;49533;-34.520;150.798;2023-06-22T07:45:20;100469.09;;;17.04;51.49
63399;BME280;49533;-34.520;150.798;2023-06-22T07:47:47;100454.28;;;16.92;51.51
63399;BME280;49533;-34.520;150.798;2023-06-22T07:50:15;100435.13;;;16.80;51.32
63399;BME280;49533;-34.520;150.798;2023-06-22T07:52:42;100453.03;;;16.90;51.38
63399;BME280;49533;-34.520;150.798;2023-06-22T07:55:09;100469.88;;;17.04;51.37
63399;BME280;49533;-34.520;150.798;2023-06-22T07:57:36;100472.63;;;17.04;51.11
63399;BME280;49533;-34.520;150.798;2023-06-22T08:00:05;100441.09;;;16.82;51.25
63399;BME280;49533;-34.520;150.798;2023-06-22T08:02:42;100436.47;;;16.86;51.19
63399;BME280;49533;-34.520;150.798;2023-06-22T08:05:10;100450.63;;;16.88;52.25
63399;BME280;49533;-34.520;150.798;2023-06-22T08:07:38;100410.78;;;16.50;55.19
63399;BME280;49533;-34.520;150.798;2023-06-22T08:10:06;100458.34;;;16.83;55.02
63399;BME280;49533;-34.520;150.798;2023-06-22T08:12:33;100479.25;;;16.75;54.97
63399;BME280;49533;-34.520;150.798;2023-06-22T08:15:00;100451.63;;;16.68;56.17
63399;BME280;49533;-34.520;150.798;2023-06-22T08:17:27;100429.97;;;16.50;56.92
63399;BME280;49533;-34.520;150.798;2023-06-22T08:19:54;100418.19;;;16.34;57.22
63399;BME280;49533;-34.520;150.798;2023-06-22T08:22:22;100443.44;;;16.56;57.18
63399;BME280;49533;-34.520;150.798;2023-06-22T08:24:49;100437.75;;;16.48;57.25
63399;BME280;49533;-34.520;150.798;2023-06-22T08:27:16;100383.56;;;16.01;57.05
63399;BME280;49533;-34.520;150.798;2023-06-22T08:29:47;100433.34;;;16.44;57.59
63399;BME280;49533;-34.520;150.798;2023-06-22T08:32:15;100426.59;;;16.41;57.81
63399;BME280;49533;-34.520;150.798;2023-06-22T08:34:42;100295.78;;;15.33;58.71
63399;BME280;49533;-34.520;150.798;2023-06-22T08:37:10;100430.47;;;16.00;58.51
63399;BME280;49533;-34.520;150.798;2023-06-22T08:39:37;100443.94;;;16.05;58.98
63399;BME280;49533;-34.520;150.798;2023-06-22T08:42:05;100438.94;;;15.95;59.28
63399;BME280;49533;-34.520;150.798;2023-06-22T08:44:33;100391.38;;;15.38;59.25
63399;BME280;49533;-34.520;150.798;2023-06-22T08:47:00;99993.03;;;12.67;58.94
63399;BME280;49533;-34.520;150.798;2023-06-22T08:49:27;100412.13;;;15.63;59.37
63399;BME280;49533;-34.520;150.798;2023-06-22T08:51:54;100353.97;;;15.30;59.64
63399;BME280;49533;-34.520;150.798;2023-06-22T08:54:23;100362.03;;;14.89;59.72
63399;BME280;49533;-34.520;150.798;2023-06-22T08:56:50;100429.94;;;15.70;59.50
63399;BME280;49533;-34.520;150.798;2023-06-22T08:59:17;100461.75;;;15.62;60.02
63399;BME280;49533;-34.520;150.798;2023-06-22T09:01:44;100421.25;;;15.55;60.12
63399;BME280;49533;-34.520;150.798;2023-06-22T09:04:15;100415.53;;;15.36;60.44
63399;BME280;49533;-34.520;150.798;2023-06-22T09:06:42;100310.38;;;14.63;59.92
63399;BME280;49533;-34.520;150.798;2023-06-22T09:09:13;100437.22;;;15.53;60.53
63399;BME280;49533;-34.520;150.798;2023-06-22T09:11:41;100191.22;;;13.92;60.06
63399;BME280;49533;-34.520;150.798;2023-06-22T09:14:09;100394.00;;;15.22;59.92
63399;BME280;49533;-34.520;150.798;2023-06-22T09:16:36;100299.44;;;14.63;59.78
63399;BME280;49533;-34.520;150.798;2023-06-22T09:19:03;100389.31;;;15.22;60.46
63399;BME280;49533;-34.520;150.798;2023-06-22T09:21:30;100381.94;;;14.77;60.48
63399;BME280;49533;-34.520;150.798;2023-06-22T09:23:57;100373.91;;;15.06;60.40
63399;BME280;49533;-34.520;150.798;2023-06-22T09:26:24;100387.59;;;15.30;60.27
63399;BME280;49533;-34.520;150.798;2023-06-22T09:28:51;100272.91;;;14.64;60.30
63399;BME280;49533;-34.520;150.798;2023-06-22T09:31:18;100348.16;;;15.19;60.43
63399;BME280;49533;-34.520;150.798;2023-06-22T09:33:53;100229.78;;;14.36;60.57
63399;BME280;49533;-34.520;150.798;2023-06-22T09:36:22;100120.66;;;13.48;60.21
63399;BME280;49533;-34.520;150.798;2023-06-22T09:38:49;100248.59;;;14.50;59.86
63399;BME280;49533;-34.520;150.798;2023-06-22T09:41:22;100309.50;;;14.96;60.48
63399;BME280;49533;-34.520;150.798;2023-06-22T09:43:50;100333.44;;;15.11;60.66
63399;BME280;49533;-34.520;150.798;2023-06-22T09:46:17;100255.00;;;14.54;60.80
63399;BME280;49533;-34.520;150.798;2023-06-22T09:48:44;100342.34;;;15.33;60.96
63399;BME280;49533;-34.520;150.798;2023-06-22T09:51:12;100347.34;;;15.31;60.93
63399;BME280;49533;-34.520;150.798;2023-06-22T09:53:39;100227.75;;;14.45;60.82
63399;BME280;49533;-34.520;150.798;2023-06-22T09:56:06;100362.19;;;15.17;60.77
63399;BME280;49533;-34.520;150.798;2023-06-22T09:58:33;100278.41;;;14.43;60.17
63399;BME280;49533;-34.520;150.798;2023-06-22T10:01:00;100349.50;;;14.88;60.75
63399;BME280;49533;-34.520;150.798;2023-06-22T10:03:27;100281.00;;;14.39;60.87
63399;BME280;49533;-34.520;150.798;2023-06-22T10:05:54;100359.78;;;15.04;60.53
63399;BME280;49533;-34.520;150.798;2023-06-22T10:08:22;100366.38;;;15.03;60.26
63399;BME280;49533;-34.520;150.798;2023-06-22T10:10:49;100353.59;;;14.82;60.95
63399;BME280;49533;-34.520;150.798;2023-06-22T10:13:16;100306.56;;;14.10;61.13
63399;BME280;49533;-34.520;150.798;2023-06-22T10:15:44;100298.41;;;14.22;61.01
63399;BME280;49533;-34.520;150.798;2023-06-22T10:18:17;100260.13;;;14.10;60.95
63399;BME280;49533;-34.520;150.798;2023-06-22T10:20:48;100339.34;;;14.76;61.38
63399;BME280;49533;-34.520;150.798;2023-06-22T10:23:18;100315.16;;;14.66;61.28
63399;BME280;49533;-34.520;150.798;2023-06-22T10:25:46;100213.09;;;14.04;60.89
63399;BME280;49533;-34.520;150.798;2023-06-22T10:28:14;100237.50;;;14.34;60.80
63399;BME280;49533;-34.520;150.798;2023-06-22T10:30:41;100300.13;;;14.72;60.81
63399;BME280;49533;-34.520;150.798;2023-06-22T10:33:09;100319.94;;;14.69;61.00
63399;BME280;49533;-34.520;150.798;2023-06-22T10:35:37;100306.00;;;14.50;60.73
63399;BME280;49533;-34.520;150.798;2023-06-22T10:38:05;100171.69;;;13.69;60.55
63399;BME280;49533;-34.520;150.798;2023-06-22T10:40:32;100322.69;;;14.69;60.11
63399;BME280;49533;-34.520;150.798;2023-06-22T10:43:00;100296.94;;;14.58;60.37
63399;BME280;49533;-34.520;150.798;2023-06-22T10:45:27;100255.16;;;14.36;60.05
63399;BME280;49533;-34.520;150.798;2023-06-22T10:47:55;100114.69;;;13.34;60.53
63399;BME280;49533;-34.520;150.798;2023-06-22T10:50:22;100206.16;;;14.07;60.74
63399;BME280;49533;-34.520;150.798;2023-06-22T10:52:50;100274.13;;;14.54;61.24
63399;BME280;49533;-34.520;150.798;2023-06-22T10:55:17;100134.94;;;13.66;61.27
63399;BME280;49533;-34.520;150.798;2023-06-22T10:57:45;100259.94;;;14.27;61.78
63399;BME280;49533;-34.520;150.798;2023-06-22T11:00:14;100282.50;;;14.36;61.98
63399;BME280;49533;-34.520;150.798;2023-06-22T11:02:44;100145.81;;;13.54;62.04
63399;BME280;49533;-34.520;150.798;2023-06-22T11:05:11;100061.34;;;13.03;61.96
63399;BME280;49533;-34.520;150.798;2023-06-22T11:07:42;100075.72;;;13.13;61.64
63399;BME280;49533;-34.520;150.798;2023-06-22T11:10:13;100199.56;;;14.20;61.25
63399;BME280;49533;-34.520;150.798;2023-06-22T11:12:40;100224.09;;;14.41;61.91
63399;BME280;49533;-34.520;150.798;2023-06-22T11:15:09;99977.56;;;12.92;61.31
63399;BME280;49533;-34.520;150.798;2023-06-22T11:17:36;100151.09;;;14.17;61.09
63399;BME280;49533;-34.520;150.798;2023-06-22T11:20:04;100071.06;;;13.46;60.52
63399;BME280;49533;-34.520;150.798;2023-06-22T11:22:38;100038.56;;;13.54;60.07
63399;BME280;49533;-34.520;150.798;2023-06-22T11:25:06;100225.59;;;14.51;60.28
63399;BME280;49533;-34.520;150.798;2023-06-22T11:27:33;100207.72;;;14.53;60.24
63399;BME280;49533;-34.520;150.798;2023-06-22T11:30:01;99809.97;;;11.77;60.05
63399;BME280;49533;-34.520;150.798;2023-06-22T11:32:28;100186.75;;;14.45;60.09
63399;BME280;49533;-34.520;150.798;2023-06-22T11:34:55;100131.72;;;14.10;60.46
63399;BME280;49533;-34.520;150.798;2023-06-22T11:37:22;100131.28;;;14.20;60.45
63399;BME280;49533;-34.520;150.798;2023-06-22T11:39:49;100069.53;;;13.70;60.59
63399;BME280;49533;-34.520;150.798;2023-06-22T11:42:16;100091.41;;;13.82;60.89
63399;BME280;49533;-34.520;150.798;2023-06-22T11:44:44;100143.78;;;14.09;60.54
63399;BME280;49533;-34.520;150.798;2023-06-22T11:47:11;100210.56;;;14.57;60.85
63399;BME280;49533;-34.520;150.798;2023-06-22T11:49:38;100207.16;;;14.60;60.53
63399;BME280;49533;-34.520;150.798;2023-06-22T11:52:06;100187.88;;;14.44;60.78
63399;BME280;49533;-34.520;150.798;2023-06-22T11:54:33;100100.97;;;13.88;60.22
63399;BME280;49533;-34.520;150.798;2023-06-22T11:57:00;100198.38;;;14.54;60.31
63399;BME280;49533;-34.520;150.798;2023-06-22T11:59:28;100160.19;;;14.33;60.39
63399;BME280;49533;-34.520;150.798;2023-06-22T12:01:55;99891.66;;;12.40;60.19
63399;BME280;49533;-34.520;150.798;2023-06-22T12:04:22;100112.81;;;14.05;60.29
63399;BME280;49533;-34.520;150.798;2023-06-22T12:06:49;100175.34;;;14.43;60.04
63399;BME280;49533;-34.520;150.798;2023-06-22T12:09:16;100138.75;;;14.11;60.53
63399;BME280;49533;-34.520;150.798;2023-06-22T12:11:43;100086.84;;;13.86;59.86
63399;BME280;49533;-34.520;150.798;2023-06-22T12:14:10;99977.78;;;13.20;60.08
63399;BME280;49533;-34.520;150.798;2023-06-22T12:16:38;99913.41;;;12.94;60.46
63399;BME280;49533;-34.520;150.798;2023-06-22T12:19:05;100159.50;;;14.49;60.79
63399;BME280;49533;-34.520;150.798;2023-06-22T12:21:32;100034.63;;;13.76;60.57
63399;BME280;49533;-34.520;150.798;2023-06-22T12:23:59;99986.22;;;13.39;60.66
63399;BME280;49533;-34.520;150.798;2023-06-22T12:26:26;100105.06;;;14.31;60.64
63399;BME280;49533;-34.520;150.798;2023-06-22T12:28:53;99791.09;;;12.14;60.02
63399;BME280;49533;-34.520;150.798;2023-06-22T12:31:21;99752.22;;;11.92;60.30